Time;durP1;ratioP1;P1;durP2;ratioP2;P2;SDS_P1;SDS_P2;PMS_P1;PMS_P2;Temp;Humidity;BMP_temperature;BMP_pressure;BME280_temperature;BME280_humidity;BME280_pressure;Samples;Min_cycle;Max_cycle;Signal;HPM_P1;HPM_P2
2023/08/04 00:00:57;;;;;;;0.60;0.50;;;25.50;50.90;;;;;;5079095;28;20023;-68
2023/08/04 00:03:22;;;;;;;1.40;0.80;;;25.40;50.90;;;;;;5080141;28;20406;-69
2023/08/04 00:05:48;;;;;;;1.13;0.68;;;25.40;50.80;;;;;;5081604;28;20068;-69
2023/08/04 00:08:13;;;;;;;0.47;0.47;;;25.40;50.90;;;;;;5080147;28;20104;-65
2023/08/04 00:10:39;;;;;;;0.60;0.50;;;25.40;50.90;;;;;;5079603;28;20024;-65
2023/08/04 00:13:05;;;;;;;0.93;0.57;;;25.40;50.80;;;;;;5079699;28;20112;-66
2023/08/04 00:15:30;;;;;;;0.40;0.40;;;25.40;50.80;;;;;;5079143;28;20027;-66
2023/08/04 00:17:56;;;;;;;0.57;0.43;;;25.40;50.80;;;;;;5079134;28;20028;-64
2023/08/04 00:20:22;;;;;;;0.40;0.40;;;25.40;50.80;;;;;;5078151;28;20072;-64
2023/08/04 00:22:47;;;;;;;0.47;0.40;;;25.40;50.80;;;;;;5078962;28;20028;-63
2023/08/04 00:25:13;;;;;;;0.32;0.30;;;25.40;50.80;;;;;;5077529;28;20024;-65
2023/08/04 00:27:39;;;;;;;0.57;0.40;;;25.40;50.80;;;;;;5082241;28;20028;-66
2023/08/04 00:30:05;;;;;;;0.60;0.40;;;25.40;50.80;;;;;;5077430;28;20036;-66
2023/08/04 00:32:30;;;;;;;0.65;0.50;;;25.40;50.80;;;;;;5079534;28;20039;-65
2023/08/04 00:34:56;;;;;;;0.57;0.40;;;25.40;50.90;;;;;;5078020;28;20025;-65
2023/08/04 00:37:22;;;;;;;0.40;0.40;;;25.40;50.90;;;;;;5062068;28;20036;-66
2023/08/04 00:39:48;;;;;;;0.93;0.50;;;25.40;50.90;;;;;;5078277;28;20036;-65
2023/08/04 00:42:13;;;;;;;0.40;0.40;;;25.40;50.90;;;;;;5078527;28;20032;-66
2023/08/04 00:44:39;;;;;;;0.90;0.50;;;25.40;50.90;;;;;;5079006;28;20559;-65
2023/08/04 00:47:05;;;;;;;0.57;0.50;;;25.40;50.90;;;;;;5078060;28;20020;-65
2023/08/04 00:49:32;;;;;;;0.57;0.50;;;25.40;50.90;;;;;;5078757;28;20036;-65
2023/08/04 00:51:58;;;;;;;0.50;0.40;;;25.40;50.90;;;;;;5076784;28;20498;-65
2023/08/04 00:54:23;;;;;;;0.50;0.30;;;25.40;50.90;;;;;;5078441;28;20047;-65
2023/08/04 00:56:52;;;;;;;0.40;0.40;;;25.40;50.80;;;;;;5078869;28;20468;-65
2023/08/04 00:59:17;;;;;;;0.93;0.40;;;25.40;50.90;;;;;;5079783;28;20043;-64
2023/08/04 01:01:43;;;;;;;0.88;0.50;;;25.40;50.90;;;;;;5077768;28;20623;-66
2023/08/04 01:04:16;;;;;;;0.55;0.50;;;25.40;50.80;;;;;;5077910;28;20070;-63
2023/08/04 01:07:01;;;;;;;0.55;0.32;;;25.40;50.90;;;;;;5079245;28;20377;-64
2023/08/04 01:10:02;;;;;;;0.45;0.40;;;25.30;50.80;;;;;;5078007;28;20499;-63
2023/08/04 01:12:42;;;;;;;0.40;0.40;;;25.40;50.80;;;;;;5060876;28;21194;-64
2023/08/04 01:15:10;;;;;;;0.40;0.40;;;25.30;50.80;;;;;;5078153;28;20043;-65
2023/08/04 01:17:35;;;;;;;0.50;0.50;;;25.30;50.80;;;;;;5078617;28;20021;-67
2023/08/04 01:20:03;;;;;;;0.63;0.40;;;25.40;50.80;;;;;;5077478;28;20502;-67
2023/08/04 01:22:28;;;;;;;0.55;0.50;;;25.40;50.90;;;;;;5061438;28;20119;-67
2023/08/04 01:24:55;;;;;;;0.60;0.47;;;25.30;50.80;;;;;;5077955;28;20035;-67
2023/08/04 01:27:43;;;;;;;0.30;0.30;;;25.30;50.80;;;;;;5078411;28;20021;-65
2023/08/04 01:30:18;;;;;;;1.00;0.57;;;25.40;50.90;;;;;;5076673;28;20484;-64
2023/08/04 01:32:44;;;;;;;0.77;0.50;;;25.40;50.90;;;;;;5079765;28;20037;-64
2023/08/04 01:35:11;;;;;;;0.55;0.50;;;25.30;50.80;;;;;;5077287;28;20341;-66
2023/08/04 01:37:37;;;;;;;0.50;0.40;;;25.30;50.80;;;;;;5080452;28;20031;-65
2023/08/04 01:40:02;;;;;;;0.50;0.50;;;25.30;50.80;;;;;;5074648;28;20380;-65
2023/08/04 01:42:28;;;;;;;0.50;0.40;;;25.30;50.80;;;;;;5076325;28;20487;-66
2023/08/04 01:44:54;;;;;;;0.77;0.50;;;25.30;50.80;;;;;;5077680;28;20483;-66
2023/08/04 01:47:19;;;;;;;0.60;0.50;;;25.30;50.80;;;;;;5077468;28;20033;-65
2023/08/04 01:49:45;;;;;;;1.00;0.60;;;25.30;50.80;;;;;;5076360;28;20463;-64
2023/08/04 01:52:10;;;;;;;0.95;0.52;;;25.30;50.80;;;;;;5075885;28;20036;-64
2023/08/04 01:54:36;;;;;;;0.70;0.60;;;25.30;50.80;;;;;;5076051;28;20029;-65
2023/08/04 01:57:03;;;;;;;0.40;0.40;;;25.30;50.80;;;;;;5073223;28;20469;-65
2023/08/04 01:59:28;;;;;;;0.32;0.32;;;25.30;50.80;;;;;;5077894;28;20052;-65
2023/08/04 02:01:54;;;;;;;0.63;0.40;;;25.30;50.80;;;;;;5081296;28;20024;-65
2023/08/04 02:04:20;;;;;;;0.70;0.50;;;25.30;50.80;;;;;;5080072;28;20115;-65
2023/08/04 02:06:45;;;;;;;1.38;0.70;;;25.30;50.80;;;;;;5080589;28;20113;-65
2023/08/04 02:09:14;;;;;;;0.77;0.52;;;25.30;50.80;;;;;;5081545;28;20164;-64
2023/08/04 02:11:41;;;;;;;0.57;0.57;;;25.30;50.80;;;;;;5069703;28;20044;-65
2023/08/04 02:14:06;;;;;;;0.82;0.60;;;25.30;50.80;;;;;;5081073;28;20052;-65
2023/08/04 02:16:33;;;;;;;0.50;0.50;;;25.20;50.80;;;;;;5080271;28;20052;-66
2023/08/04 02:19:05;;;;;;;0.50;0.50;;;25.30;50.70;;;;;;5061877;28;20028;-65
2023/08/04 02:21:31;;;;;;;0.60;0.40;;;25.30;50.70;;;;;;5081186;28;20028;-65
2023/08/04 02:23:57;;;;;;;1.23;0.70;;;25.30;50.60;;;;;;5080158;28;20031;-65
2023/08/04 02:26:23;;;;;;;1.10;0.60;;;25.40;50.70;;;;;;5079736;28;20047;-66
2023/08/04 02:28:50;;;;;;;0.75;0.70;;;25.30;50.60;;;;;;5079346;28;20041;-69
2023/08/04 02:31:17;;;;;;;0.50;0.50;;;25.30;50.60;;;;;;5079448;28;20029;-69
2023/08/04 02:33:43;;;;;;;0.73;0.60;;;25.30;50.60;;;;;;5078438;28;20594;-69
2023/08/04 02:36:09;;;;;;;0.90;0.57;;;25.30;50.50;;;;;;5079046;28;20040;-69
2023/08/04 02:38:34;;;;;;;0.68;0.60;;;25.30;50.50;;;;;;5079985;28;20544;-69
2023/08/04 02:41:03;;;;;;;0.50;0.50;;;25.30;50.60;;;;;;5079036;28;20169;-69
2023/08/04 02:43:30;;;;;;;0.75;0.60;;;25.30;50.60;;;;;;5063093;28;20027;-69
2023/08/04 02:45:56;;;;;;;1.05;0.55;;;25.30;50.60;;;;;;5080123;28;20054;-70
2023/08/04 02:48:21;;;;;;;0.50;0.50;;;25.30;50.60;;;;;;5065014;28;20024;-65
2023/08/04 02:50:56;;;;;;;1.10;0.60;;;25.30;50.60;;;;;;5082771;28;20557;-66
2023/08/04 02:53:22;;;;;;;0.52;0.50;;;25.30;50.60;;;;;;5079512;28;20031;-65
2023/08/04 02:55:47;;;;;;;1.60;0.60;;;25.30;50.60;;;;;;5077010;28;20139;-65
2023/08/04 02:58:13;;;;;;;0.77;0.60;;;25.30;50.60;;;;;;5079976;28;20035;-65
2023/08/04 03:00:38;;;;;;;0.82;0.57;;;25.30;50.50;;;;;;5079359;28;20458;-65
2023/08/04 03:03:04;;;;;;;0.70;0.50;;;25.30;50.50;;;;;;5066054;28;20024;-65
2023/08/04 03:05:34;;;;;;;1.10;0.60;;;25.30;50.60;;;;;;5079605;28;20162;-64
2023/08/04 03:08:00;;;;;;;0.80;0.52;;;25.30;50.60;;;;;;5079055;28;20671;-65
2023/08/04 03:10:25;;;;;;;0.80;0.50;;;25.30;50.60;;;;;;5079612;28;20032;-65
2023/08/04 03:12:51;;;;;;;1.50;0.70;;;25.30;50.60;;;;;;5079187;28;20115;-65
2023/08/04 03:15:17;;;;;;;1.02;0.60;;;25.30;50.60;;;;;;5081220;28;20111;-66
2023/08/04 03:17:42;;;;;;;0.82;0.60;;;25.30;50.60;;;;;;5080510;28;20117;-64
2023/08/04 03:20:09;;;;;;;0.90;0.50;;;25.30;50.50;;;;;;5078218;28;20082;-65
2023/08/04 03:22:34;;;;;;;1.08;0.50;;;25.30;50.60;;;;;;5080576;28;20141;-65
2023/08/04 03:25:00;;;;;;;0.77;0.50;;;25.30;50.60;;;;;;5079062;28;20510;-65
2023/08/04 03:27:27;;;;;;;0.80;0.70;;;25.30;50.60;;;;;;5077419;28;20029;-65
2023/08/04 03:29:53;;;;;;;0.65;0.50;;;25.30;50.60;;;;;;5080714;28;20024;-66
2023/08/04 03:32:18;;;;;;;0.82;0.50;;;25.30;50.60;;;;;;5079771;28;20035;-65
2023/08/04 03:34:44;;;;;;;0.55;0.43;;;25.30;50.60;;;;;;5078745;28;20138;-65
2023/08/04 03:37:10;;;;;;;0.73;0.60;;;25.30;50.60;;;;;;5079251;28;20081;-66
2023/08/04 03:39:35;;;;;;;0.60;0.52;;;25.30;50.60;;;;;;5078892;28;20067;-66
2023/08/04 03:42:01;;;;;;;1.05;0.60;;;25.30;50.60;;;;;;5076416;28;20024;-66
2023/08/04 03:44:26;;;;;;;0.70;0.50;;;25.30;50.60;;;;;;5079209;28;20485;-67
2023/08/04 03:46:52;;;;;;;0.85;0.60;;;25.30;50.60;;;;;;5079069;28;20101;-64
2023/08/04 03:49:18;;;;;;;1.02;0.50;;;25.20;50.50;;;;;;5081005;28;20059;-64
2023/08/04 03:51:43;;;;;;;0.80;0.60;;;25.20;50.50;;;;;;5078333;28;20966;-64
2023/08/04 03:54:09;;;;;;;0.80;0.50;;;25.20;50.50;;;;;;5079629;28;20367;-64
2023/08/04 03:56:34;;;;;;;0.82;0.60;;;25.20;50.50;;;;;;5076545;28;20047;-66
2023/08/04 03:59:00;;;;;;;0.50;0.50;;;25.20;50.60;;;;;;5080072;28;20475;-66
2023/08/04 04:01:26;;;;;;;0.65;0.47;;;25.20;50.60;;;;;;5079478;28;20032;-66
2023/08/04 04:03:51;;;;;;;0.68;0.50;;;25.20;50.50;;;;;;5078781;28;20019;-66
2023/08/04 04:06:17;;;;;;;0.65;0.50;;;25.20;50.60;;;;;;5078346;28;20020;-66
2023/08/04 04:08:42;;;;;;;0.50;0.47;;;25.20;50.50;;;;;;5079438;28;20029;-67
2023/08/04 04:11:08;;;;;;;0.60;0.50;;;25.20;50.50;;;;;;5077292;28;20135;-66
2023/08/04 04:13:34;;;;;;;0.50;0.50;;;25.20;50.60;;;;;;5077910;28;20077;-67
2023/08/04 04:16:00;;;;;;;0.80;0.60;;;25.20;50.60;;;;;;5080297;28;20453;-66
2023/08/04 04:18:25;;;;;;;0.68;0.60;;;25.20;50.60;;;;;;5062494;28;20067;-67
2023/08/04 04:20:51;;;;;;;0.55;0.40;;;25.20;50.50;;;;;;5078321;28;20410;-66
2023/08/04 04:23:16;;;;;;;0.93;0.55;;;25.20;50.50;;;;;;5077983;28;20028;-67
2023/08/04 04:25:42;;;;;;;0.50;0.45;;;25.20;50.50;;;;;;5079903;28;20024;-66
2023/08/04 04:28:08;;;;;;;0.93;0.60;;;25.20;50.50;;;;;;5076385;28;20025;-67
2023/08/04 04:30:33;;;;;;;0.57;0.50;;;25.20;50.50;;;;;;5078122;28;20038;-67
2023/08/04 04:32:59;;;;;;;0.73;0.60;;;25.20;50.50;;;;;;5076853;28;20034;-66
2023/08/04 04:35:24;;;;;;;0.45;0.40;;;25.20;50.50;;;;;;5077738;28;20094;-67
2023/08/04 04:37:50;;;;;;;0.40;0.40;;;25.20;50.50;;;;;;5061180;28;20452;-67
2023/08/04 04:40:16;;;;;;;0.50;0.50;;;25.20;50.50;;;;;;5078606;28;20027;-67
2023/08/04 04:42:41;;;;;;;0.90;0.60;;;25.20;50.50;;;;;;5062546;28;20032;-67
2023/08/04 04:45:07;;;;;;;0.63;0.50;;;25.20;50.50;;;;;;5078488;28;20029;-67
2023/08/04 04:47:33;;;;;;;1.00;0.50;;;25.20;50.50;;;;;;5079800;28;20028;-67
2023/08/04 04:49:59;;;;;;;1.40;0.50;;;25.20;51.10;;;;;;5066284;28;20029;-66
2023/08/04 04:52:35;;;;;;;0.40;0.40;;;25.10;50.70;;;;;;5079214;28;20038;-66
2023/08/04 04:55:02;;;;;;;0.80;0.40;;;25.10;51.20;;;;;;5078289;28;20031;-66
2023/08/04 04:57:28;;;;;;;0.60;0.40;;;25.10;50.60;;;;;;5076924;28;20433;-66
2023/08/04 04:59:54;;;;;;;0.55;0.40;;;25.10;50.60;;;;;;5077734;28;20472;-66
2023/08/04 05:02:19;;;;;;;0.73;0.40;;;25.10;50.60;;;;;;5078855;28;20017;-66
2023/08/04 05:04:45;;;;;;;0.50;0.40;;;25.10;50.60;;;;;;5076388;28;20035;-66
2023/08/04 05:07:11;;;;;;;0.60;0.40;;;25.10;50.60;;;;;;5076508;28;20029;-66
2023/08/04 05:09:38;;;;;;;0.40;0.40;;;25.10;50.60;;;;;;5078859;28;20020;-64
2023/08/04 05:12:04;;;;;;;0.40;0.40;;;25.10;50.60;;;;;;5076230;28;20033;-63
2023/08/04 05:14:30;;;;;;;0.47;0.40;;;25.10;50.60;;;;;;5078543;28;20128;-64
2023/08/04 05:16:55;;;;;;;0.47;0.47;;;25.10;50.70;;;;;;5078211;28;20539;-64
2023/08/04 05:19:22;;;;;;;0.60;0.40;;;25.10;50.60;;;;;;5077111;28;20024;-64
2023/08/04 05:21:47;;;;;;;0.30;0.30;;;25.10;50.70;;;;;;5062473;28;20031;-63
2023/08/04 05:24:13;;;;;;;0.65;0.50;;;25.10;50.70;;;;;;5080573;28;20098;-63
2023/08/04 05:26:38;;;;;;;0.43;0.40;;;25.10;50.70;;;;;;5078787;28;20029;-63
2023/08/04 05:29:04;;;;;;;0.80;0.60;;;25.10;50.70;;;;;;5077555;28;20341;-64
2023/08/04 05:31:30;;;;;;;0.50;0.50;;;25.10;50.70;;;;;;5077056;28;20032;-63
2023/08/04 05:33:56;;;;;;;0.98;0.50;;;25.10;50.70;;;;;;5077411;28;20575;-64
2023/08/04 05:36:23;;;;;;;0.68;0.45;;;25.10;50.70;;;;;;5080368;28;20020;-63
2023/08/04 05:38:48;;;;;;;0.38;0.35;;;25.10;51.20;;;;;;5081977;28;20034;-63
2023/08/04 05:41:14;;;;;;;1.02;0.57;;;25.10;50.70;;;;;;5081230;28;20388;-63
2023/08/04 05:43:40;;;;;;;0.40;0.40;;;25.00;50.70;;;;;;5080652;28;20024;-63
2023/08/04 05:46:05;;;;;;;0.93;0.50;;;25.00;50.70;;;;;;5082299;28;20040;-63
2023/08/04 05:48:32;;;;;;;0.70;0.45;;;25.00;50.70;;;;;;5081807;28;20073;-62
2023/08/04 05:50:58;;;;;;;0.77;0.43;;;25.00;50.70;;;;;;5080963;28;20024;-63
2023/08/04 05:53:24;;;;;;;0.70;0.50;;;25.00;50.70;;;;;;5081277;28;20038;-64
2023/08/04 05:55:50;;;;;;;0.60;0.52;;;25.00;50.70;;;;;;5080877;28;20089;-63
2023/08/04 05:58:15;;;;;;;0.80;0.50;;;25.00;50.70;;;;;;5079061;28;20063;-63
2023/08/04 06:00:41;;;;;;;0.50;0.40;;;25.00;50.80;;;;;;5082467;28;20436;-65
2023/08/04 06:03:07;;;;;;;0.52;0.40;;;25.00;50.70;;;;;;5080588;28;20028;-64
2023/08/04 06:05:33;;;;;;;0.55;0.50;;;25.00;50.80;;;;;;5082426;28;20028;-64
2023/08/04 06:07:58;;;;;;;1.08;0.45;;;25.00;50.80;;;;;;5081772;28;20056;-64
2023/08/04 06:10:25;;;;;;;0.82;0.43;;;25.00;50.80;;;;;;5079695;28;20035;-64
2023/08/04 06:12:51;;;;;;;0.40;0.40;;;24.90;50.80;;;;;;5079701;28;20030;-63
2023/08/04 06:15:16;;;;;;;0.40;0.40;;;24.90;50.80;;;;;;5080354;28;20040;-63
2023/08/04 06:17:43;;;;;;;1.25;0.60;;;24.90;50.80;;;;;;5080469;28;20050;-63
2023/08/04 06:20:09;;;;;;;0.50;0.50;;;24.90;50.80;;;;;;5078904;28;20032;-63
2023/08/04 06:22:36;;;;;;;1.13;0.60;;;24.90;50.80;;;;;;5066141;28;20032;-63
2023/08/04 06:25:03;;;;;;;1.67;0.50;;;24.90;50.80;;;;;;5082554;28;20027;-63
2023/08/04 06:27:28;;;;;;;0.65;0.50;;;24.90;50.80;;;;;;5079542;28;20025;-63
2023/08/04 06:29:54;;;;;;;0.95;0.50;;;24.90;50.80;;;;;;5079656;28;20106;-64
2023/08/04 06:32:20;;;;;;;1.05;0.50;;;24.90;50.80;;;;;;5076606;28;20563;-64
2023/08/04 06:34:45;;;;;;;0.40;0.40;;;24.90;50.80;;;;;;5066149;28;20030;-63
2023/08/04 06:37:11;;;;;;;0.88;0.50;;;24.90;50.90;;;;;;5079464;28;20419;-64
2023/08/04 06:39:36;;;;;;;0.57;0.50;;;24.90;50.90;;;;;;5079754;28;20107;-64
2023/08/04 06:42:04;;;;;;;0.95;0.60;;;24.90;50.90;;;;;;5083172;28;20096;-63
2023/08/04 06:44:30;;;;;;;0.40;0.38;;;24.80;50.90;;;;;;5077519;28;20051;-65
2023/08/04 06:46:55;;;;;;;0.80;0.60;;;24.80;50.90;;;;;;5082194;28;20045;-64
2023/08/04 06:49:21;;;;;;;0.40;0.40;;;24.80;50.90;;;;;;5081010;28;20463;-64
2023/08/04 06:51:49;;;;;;;0.43;0.43;;;24.90;51.00;;;;;;5079567;28;20043;-64
2023/08/04 06:54:15;;;;;;;0.55;0.40;;;24.80;50.90;;;;;;5079557;28;20517;-64
2023/08/04 06:56:41;;;;;;;0.45;0.40;;;24.80;50.90;;;;;;5080634;28;20384;-65
2023/08/04 06:59:06;;;;;;;0.40;0.40;;;24.80;51.00;;;;;;5081840;28;20036;-63
2023/08/04 07:01:32;;;;;;;0.85;0.47;;;24.90;51.00;;;;;;5079812;28;20115;-63
2023/08/04 07:03:57;;;;;;;0.80;0.50;;;24.80;51.50;;;;;;5081532;28;20388;-65
2023/08/04 07:06:23;;;;;;;0.45;0.45;;;24.80;51.00;;;;;;5080724;28;20099;-64
2023/08/04 07:08:49;;;;;;;0.45;0.40;;;24.80;51.00;;;;;;5078552;28;20115;-64
2023/08/04 07:11:18;;;;;;;0.40;0.40;;;24.80;51.00;;;;;;5080494;28;20095;-63
2023/08/04 07:13:44;;;;;;;0.77;0.50;;;24.80;51.00;;;;;;5077660;28;20029;-64
2023/08/04 07:16:10;;;;;;;1.00;0.50;;;24.80;51.00;;;;;;5077312;28;20509;-64
2023/08/04 07:18:39;;;;;;;0.40;0.40;;;24.80;51.00;;;;;;5080154;28;20020;-65
2023/08/04 07:21:07;;;;;;;0.63;0.50;;;24.80;51.00;;;;;;5080112;28;20488;-64
2023/08/04 07:23:33;;;;;;;0.40;0.40;;;24.80;51.00;;;;;;5078014;28;20043;-65
2023/08/04 07:25:59;;;;;;;0.47;0.40;;;24.80;51.00;;;;;;5079403;28;20070;-64
2023/08/04 07:28:24;;;;;;;0.40;0.40;;;24.80;51.10;;;;;;5079390;28;20024;-64
2023/08/04 07:30:50;;;;;;;0.68;0.50;;;24.80;51.10;;;;;;5078974;28;20028;-65
2023/08/04 07:33:15;;;;;;;0.40;0.40;;;24.80;51.00;;;;;;5078888;28;20032;-64
2023/08/04 07:35:41;;;;;;;0.47;0.45;;;24.80;51.10;;;;;;5079506;28;20024;-65
2023/08/04 07:38:07;;;;;;;0.77;0.55;;;24.80;51.10;;;;;;5077694;28;20513;-69
2023/08/04 07:40:38;;;;;;;0.93;0.60;;;24.80;51.10;;;;;;5079599;28;20036;-69
2023/08/04 07:43:05;;;;;;;0.32;0.30;;;24.80;51.10;;;;;;5078993;28;20115;-69
2023/08/04 07:45:35;;;;;;;0.82;0.60;;;24.70;51.10;;;;;;5079814;28;20027;-68
2023/08/04 07:48:00;;;;;;;0.98;0.50;;;24.70;51.00;;;;;;5078000;28;20024;-69
2023/08/04 07:50:26;;;;;;;0.38;0.32;;;24.70;51.10;;;;;;5078909;28;20028;-68
2023/08/04 07:52:51;;;;;;;0.55;0.50;;;24.70;51.10;;;;;;5079076;28;20025;-69
2023/08/04 07:55:17;;;;;;;0.47;0.40;;;24.70;51.10;;;;;;5080886;28;20373;-68
2023/08/04 07:57:43;;;;;;;0.47;0.40;;;24.70;51.10;;;;;;5078554;28;20522;-68
2023/08/04 08:00:09;;;;;;;0.70;0.40;;;24.70;51.10;;;;;;5076928;28;20139;-69
2023/08/04 08:02:35;;;;;;;0.63;0.43;;;24.70;51.20;;;;;;5078749;28;20032;-68
2023/08/04 08:05:00;;;;;;;0.50;0.50;;;24.70;51.10;;;;;;5076802;28;20027;-69
2023/08/04 08:07:26;;;;;;;0.40;0.40;;;24.70;51.20;;;;;;5063298;28;20024;-69
2023/08/04 08:09:51;;;;;;;0.30;0.30;;;24.70;51.20;;;;;;5080414;28;20537;-69
2023/08/04 08:12:17;;;;;;;0.73;0.50;;;24.70;51.20;;;;;;5078019;28;20060;-69
2023/08/04 08:14:43;;;;;;;0.40;0.40;;;24.70;51.20;;;;;;5077668;28;20037;-69
2023/08/04 08:17:09;;;;;;;0.50;0.50;;;24.70;51.20;;;;;;5079886;28;20472;-69
2023/08/04 08:19:34;;;;;;;0.50;0.50;;;24.70;51.20;;;;;;5078843;28;20025;-69
2023/08/04 08:22:00;;;;;;;0.40;0.40;;;24.70;51.20;;;;;;5079974;28;20560;-69
2023/08/04 08:24:26;;;;;;;0.68;0.50;;;24.70;51.20;;;;;;5079676;28;20429;-69
2023/08/04 08:26:51;;;;;;;0.57;0.40;;;24.70;51.30;;;;;;5061481;28;20021;-69
2023/08/04 08:29:17;;;;;;;0.40;0.40;;;24.60;51.20;;;;;;5078819;28;20590;-68
2023/08/04 08:31:42;;;;;;;0.52;0.40;;;24.60;51.20;;;;;;5064076;28;20028;-69
2023/08/04 08:34:08;;;;;;;0.40;0.40;;;24.60;51.20;;;;;;5079975;28;20031;-69
2023/08/04 08:36:34;;;;;;;0.47;0.40;;;24.60;51.20;;;;;;5076665;28;20025;-69
2023/08/04 08:38:59;;;;;;;0.40;0.30;;;24.60;51.20;;;;;;5077776;28;20055;-69
2023/08/04 08:41:25;;;;;;;0.52;0.40;;;24.60;51.30;;;;;;5077678;28;20101;-69
2023/08/04 08:43:50;;;;;;;0.52;0.40;;;24.60;51.30;;;;;;5078439;28;20020;-69
2023/08/04 08:46:16;;;;;;;0.40;0.40;;;24.60;51.30;;;;;;5058682;28;20025;-69
2023/08/04 08:48:46;;;;;;;0.55;0.47;;;24.60;51.30;;;;;;5077465;28;20039;-68
2023/08/04 08:51:18;;;;;;;0.77;0.45;;;24.60;51.30;;;;;;5077104;28;20032;-68
2023/08/04 08:53:45;;;;;;;0.40;0.40;;;24.60;51.40;;;;;;5076816;28;20047;-68
2023/08/04 08:56:10;;;;;;;0.57;0.40;;;24.60;51.40;;;;;;5077179;28;20016;-69
2023/08/04 08:58:37;;;;;;;0.75;0.50;;;24.60;51.40;;;;;;5076126;28;20676;-64
2023/08/04 09:01:03;;;;;;;0.40;0.40;;;24.60;51.40;;;;;;5077616;28;20044;-64
2023/08/04 09:03:35;;;;;;;0.40;0.40;;;24.60;51.50;;;;;;5077126;28;20139;-65
2023/08/04 09:06:01;;;;;;;0.30;0.30;;;24.60;51.50;;;;;;5077684;28;20493;-65
2023/08/04 09:08:29;;;;;;;0.88;0.50;;;24.60;51.50;;;;;;5079291;28;20024;-68
2023/08/04 09:10:54;;;;;;;0.40;0.40;;;24.60;51.50;;;;;;5080714;28;20094;-69
2023/08/04 09:13:20;;;;;;;0.50;0.40;;;24.60;51.50;;;;;;5080586;28;20515;-68
2023/08/04 09:15:54;;;;;;;0.75;0.40;;;24.60;51.50;;;;;;5072191;28;20039;-69
2023/08/04 09:18:44;;;;;;;0.60;0.40;;;24.60;51.50;;;;;;5081607;28;20111;-68
2023/08/04 09:21:13;;;;;;;0.52;0.40;;;24.60;51.50;;;;;;5081419;28;20387;-69
2023/08/04 09:23:45;;;;;;;;;;;24.60;51.50;;;;;;5082215;28;20464;-68
2023/08/04 09:26:10;;;;;;;0.70;0.50;;;24.60;51.50;;;;;;5081932;28;19908;-69
2023/08/04 09:28:36;;;;;;;0.65;0.40;;;24.60;51.50;;;;;;5082099;28;20383;-69
2023/08/04 09:31:08;;;;;;;0.50;0.50;;;24.60;51.50;;;;;;5064009;28;20063;-69
2023/08/04 09:33:41;;;;;;;0.50;0.50;;;24.60;51.60;;;;;;5081029;28;20553;-69
2023/08/04 09:36:17;;;;;;;0.40;0.40;;;24.60;51.60;;;;;;5067022;28;20031;-69
2023/08/04 09:38:43;;;;;;;0.55;0.50;;;24.60;51.60;;;;;;5080979;28;20028;-68
2023/08/04 09:41:15;;;;;;;1.02;0.40;;;24.60;51.60;;;;;;5080761;28;20081;-68
2023/08/04 09:43:48;;;;;;;0.57;0.40;;;24.60;51.60;;;;;;5082187;28;20020;-68
2023/08/04 09:46:16;;;;;;;0.73;0.47;;;24.60;51.60;;;;;;5083534;28;20054;-68
2023/08/04 09:48:42;;;;;;;0.40;0.40;;;24.60;51.60;;;;;;5081373;28;20525;-68
2023/08/04 09:51:11;;;;;;;0.90;0.50;;;24.60;51.70;;;;;;5082573;28;20028;-69
2023/08/04 09:53:45;;;;;;;0.40;0.40;;;24.60;51.70;;;;;;5067549;28;20028;-68
2023/08/04 09:56:13;;;;;;;0.40;0.40;;;24.60;51.70;;;;;;5067381;28;20757;-68
2023/08/04 09:58:40;;;;;;;0.30;0.30;;;24.60;51.60;;;;;;5081225;28;20143;-68
2023/08/04 10:01:05;;;;;;;0.30;0.30;;;24.60;51.60;;;;;;5065502;28;20414;-68
2023/08/04 10:03:33;;;;;;;0.30;0.30;;;24.60;51.70;;;;;;5083166;28;20028;-68
2023/08/04 10:06:00;;;;;;;0.68;0.40;;;24.60;51.60;;;;;;5079611;28;20054;-68
2023/08/04 10:08:42;;;;;;;0.30;0.30;;;24.60;51.70;;;;;;5081086;28;20029;-66
2023/08/04 10:11:08;;;;;;;0.65;0.50;;;24.60;51.70;;;;;;5079986;28;20035;-65
2023/08/04 10:13:37;;;;;;;0.85;0.50;;;24.60;51.70;;;;;;5080244;28;20032;-65
2023/08/04 10:16:09;;;;;;;0.40;0.40;;;24.60;51.70;;;;;;5079904;28;20425;-64
2023/08/04 10:18:54;;;;;;;0.65;0.55;;;24.60;51.70;;;;;;5081309;28;20024;-65
2023/08/04 10:21:26;;;;;;;0.40;0.40;;;24.60;51.60;;;;;;5079594;28;20043;-65
2023/08/04 10:23:52;;;;;;;0.55;0.47;;;24.60;51.60;;;;;;5080632;28;20434;-65
2023/08/04 10:26:18;;;;;;;0.30;0.30;;;24.60;51.70;;;;;;5081032;28;20472;-64
2023/08/04 10:29:09;;;;;;;0.40;0.40;;;24.60;51.60;;;;;;5081136;28;20024;-65
2023/08/04 10:31:56;;;;;;;0.40;0.40;;;24.60;51.70;;;;;;5080846;28;20038;-64
2023/08/04 10:34:27;;;;;;;0.93;0.40;;;24.60;51.70;;;;;;5078530;28;20063;-65
2023/08/04 10:36:54;;;;;;;0.45;0.40;;;24.60;51.70;;;;;;5062937;28;20493;-64
2023/08/04 10:39:30;;;;;;;0.40;0.40;;;24.60;51.70;;;;;;5064536;28;20035;-64
2023/08/04 10:41:56;;;;;;;0.50;0.50;;;24.60;51.70;;;;;;5081126;28;20020;-65
2023/08/04 10:44:49;;;;;;;0.50;0.40;;;24.60;51.70;;;;;;5069497;28;20073;-64
2023/08/04 10:47:15;;;;;;;0.85;0.40;;;24.60;51.70;;;;;;5071231;28;20028;-65
2023/08/04 10:49:41;;;;;;;0.50;0.50;;;24.60;51.70;;;;;;5081730;28;20020;-67
2023/08/04 10:52:07;;;;;;;0.93;0.50;;;24.60;51.70;;;;;;5081123;28;20869;-66
2023/08/04 10:54:32;;;;;;;0.40;0.40;;;24.60;51.70;;;;;;5080921;28;20039;-64
2023/08/04 10:56:58;;;;;;;0.60;0.60;;;24.60;51.80;;;;;;5079057;28;20480;-64
2023/08/04 10:59:24;;;;;;;0.90;0.50;;;24.60;51.70;;;;;;5077059;28;20039;-64
2023/08/04 11:01:49;;;;;;;0.60;0.47;;;24.60;51.80;;;;;;5079959;28;20119;-64
2023/08/04 11:04:16;;;;;;;0.40;0.40;;;24.60;51.80;;;;;;5078298;28;20058;-64
2023/08/04 11:06:43;;;;;;;0.68;0.52;;;24.60;51.50;;;;;;5077941;28;20484;-64
2023/08/04 11:09:10;;;;;;;0.73;0.50;;;24.60;51.30;;;;;;5079614;28;20472;-64
2023/08/04 11:11:36;;;;;;;0.75;0.50;;;24.60;51.00;;;;;;5079877;28;20491;-64
2023/08/04 11:14:04;;;;;;;0.80;0.40;;;24.60;50.80;;;;;;5077712;28;20081;-65
2023/08/04 11:16:32;;;;;;;0.90;0.68;;;24.60;50.40;;;;;;5079778;28;20017;-64
2023/08/04 11:18:58;;;;;;;0.70;0.57;;;24.60;50.30;;;;;;5082232;28;20020;-65
2023/08/04 11:21:24;;;;;;;0.55;0.50;;;24.60;50.10;;;;;;5078168;28;20051;-65
2023/08/04 11:23:49;;;;;;;0.50;0.50;;;24.60;50.10;;;;;;5063380;28;20032;-65
2023/08/04 11:26:16;;;;;;;0.75;0.57;;;24.60;49.80;;;;;;5079231;28;20412;-65
2023/08/04 11:28:42;;;;;;;0.90;0.50;;;24.60;49.60;;;;;;5079411;28;20016;-68
2023/08/04 11:31:09;;;;;;;0.60;0.50;;;24.60;49.50;;;;;;5077772;28;20039;-66
2023/08/04 11:33:35;;;;;;;0.65;0.50;;;24.60;49.20;;;;;;5079504;28;20106;-67
2023/08/04 11:36:03;;;;;;;0.73;0.60;;;24.60;48.90;;;;;;5079338;28;20232;-67
2023/08/04 11:38:29;;;;;;;0.65;0.50;;;24.50;48.80;;;;;;5081085;28;20055;-67
2023/08/04 11:41:00;;;;;;;0.40;0.40;;;24.50;48.70;;;;;;5078549;28;20514;-66
2023/08/04 11:43:26;;;;;;;0.65;0.40;;;24.60;48.70;;;;;;5080993;28;20028;-67
2023/08/04 11:45:55;;;;;;;1.27;0.60;;;24.50;48.60;;;;;;5078888;28;20469;-67
2023/08/04 11:48:21;;;;;;;0.40;0.40;;;24.60;48.70;;;;;;5078704;28;20021;-67
2023/08/04 11:50:50;;;;;;;0.43;0.40;;;24.60;48.70;;;;;;5081198;28;20548;-67
2023/08/04 11:53:16;;;;;;;0.65;0.40;;;24.50;48.80;;;;;;5077472;28;20033;-67
2023/08/04 11:56:02;;;;;;;0.82;0.50;;;24.50;49.00;;;;;;5080587;28;20043;-67
2023/08/04 11:58:36;;;;;;;0.47;0.40;;;24.60;49.10;;;;;;5078382;28;20028;-66
2023/08/04 12:01:02;;;;;;;0.50;0.40;;;24.50;49.20;;;;;;5077734;28;20035;-67
2023/08/04 12:03:48;;;;;;;0.85;0.40;;;24.60;49.30;;;;;;5079072;28;20044;-67
2023/08/04 12:06:14;;;;;;;0.40;0.40;;;24.60;49.20;;;;;;5079831;28;20367;-67
2023/08/04 12:08:49;;;;;;;0.47;0.40;;;24.60;49.30;;;;;;5080231;28;20043;-67
2023/08/04 12:11:16;;;;;;;0.38;0.38;;;24.50;49.20;;;;;;5077313;28;20021;-67
2023/08/04 12:13:42;;;;;;;0.50;0.35;;;24.50;49.40;;;;;;5060615;28;20032;-67
2023/08/04 12:16:08;;;;;;;0.55;0.38;;;24.60;49.40;;;;;;5079776;28;20082;-67
2023/08/04 12:18:34;;;;;;;0.40;0.40;;;24.50;49.10;;;;;;5059800;28;20081;-67
2023/08/04 12:21:00;;;;;;;0.98;0.50;;;24.60;48.90;;;;;;5076594;28;20020;-67
2023/08/04 12:23:25;;;;;;;0.40;0.40;;;24.60;48.80;;;;;;5079199;28;20107;-67
2023/08/04 12:25:53;;;;;;;0.65;0.50;;;24.50;48.70;;;;;;5078535;28;20107;-66
2023/08/04 12:28:19;;;;;;;0.47;0.40;;;24.50;48.70;;;;;;5078857;28;20032;-63
2023/08/04 12:30:44;;;;;;;1.42;0.40;;;24.50;48.70;;;;;;5077783;28;20089;-63
2023/08/04 12:33:10;;;;;;;0.50;0.43;;;24.50;48.70;;;;;;5081342;28;20098;-64
2023/08/04 12:35:36;;;;;;;0.93;0.50;;;24.50;48.80;;;;;;5079385;28;20051;-64
2023/08/04 12:38:04;;;;;;;0.40;0.30;;;24.50;48.90;;;;;;5078157;28;20027;-67
2023/08/04 12:40:33;;;;;;;0.87;0.50;;;24.60;48.90;;;;;;5078665;28;20028;-67
2023/08/04 12:43:00;;;;;;;0.70;0.43;;;24.60;48.80;;;;;;5078251;28;20051;-67
2023/08/04 12:45:26;;;;;;;0.60;0.40;;;24.50;48.80;;;;;;5078530;28;20028;-68
2023/08/04 12:47:52;;;;;;;1.35;0.60;;;24.50;48.90;;;;;;5079212;28;20027;-67